Time;durP1;ratioP1;P1;durP2;ratioP2;P2;SDS_P1;SDS_P2;PMS_P1;PMS_P2;Temp;Humidity;BMP_temperature;BMP_pressure;BME280_temperature;BME280_humidity;BME280_pressure;Samples;Min_cycle;Max_cycle;Signal;HPM_P1;HPM_P2
2021/12/02 00:01:14;;;;;;;11.43;7.37;;;;;;;-1.22;70.93;98669.19;1775773;80;21022;-81
2021/12/02 00:03:41;;;;;;;18.43;9.20;;;;;;;-1.18;70.87;98670.41;1770816;80;21057;-80
2021/12/02 00:06:12;;;;;;;14.47;9.13;;;;;;;-1.13;70.76;98664.53;1755438;80;20973;-80
2021/12/02 00:08:39;;;;;;;12.83;8.30;;;;;;;-1.09;70.61;98659.98;1736264;81;21525;-78
2021/12/02 00:11:06;;;;;;;15.33;9.13;;;;;;;-1.08;70.53;98659.48;1723557;82;21047;-83
2021/12/02 00:21:25;;;;;;;15.03;7.77;;;;;;;-1.15;70.62;98641.52;1755564;80;20981;-72
2021/12/02 00:24:03;;;;;;;18.23;9.40;;;;;;;-1.18;70.87;98632.16;1755370;80;21033;-76
2021/12/02 00:26:32;;;;;;;13.40;8.33;;;;;;;-1.20;70.98;98634.17;1775262;80;21131;-75
2021/12/02 00:29:01;;;;;;;14.63;9.10;;;;;;;-1.29;71.20;98628.78;1755588;80;21016;-76
2021/12/02 00:31:30;;;;;;;14.40;9.70;;;;;;;-1.30;71.45;98631.64;1767910;80;20999;-80
2021/12/02 00:34:03;;;;;;;17.23;8.63;;;;;;;-1.27;71.46;98636.01;1742950;81;21034;-77
2021/12/02 00:36:32;;;;;;;20.43;9.83;;;;;;;-1.27;71.48;98637.83;1739880;81;21003;-74
2021/12/02 00:39:01;;;;;;;13.17;8.27;;;;;;;-1.29;71.45;98636.70;1742244;81;21951;-77
2021/12/02 00:41:28;;;;;;;15.60;9.53;;;;;;;-1.24;71.30;98635.59;1742430;81;20966;-77
2021/12/02 00:43:57;;;;;;;17.20;10.63;;;;;;;-1.22;71.26;98634.91;1768663;80;21035;-84
2021/12/02 00:46:26;;;;;;;15.00;8.73;;;;;;;-1.19;71.13;98632.36;1767873;80;21341;-79
2021/12/02 00:48:53;;;;;;;14.60;9.43;;;;;;;-1.19;70.96;98627.89;1760177;81;21157;-81
2021/12/02 00:51:20;;;;;;;11.13;7.33;;;;;;;-1.19;70.83;98630.53;1749195;81;21547;-84
2021/12/02 00:53:52;;;;;;;11.63;7.00;;;;;;;-1.08;70.63;98619.91;1764886;81;21038;-76
2021/12/02 00:56:18;;;;;;;16.60;7.47;;;;;;;-1.05;69.98;98615.03;1755366;81;22500;-84
2021/12/02 00:58:49;;;;;;;8.67;6.23;;;;;;;-1.03;69.76;98608.23;1765877;81;21023;-85
2021/12/02 01:01:17;;;;;;;6.90;4.93;;;;;;;-1.02;69.34;98603.27;1750866;81;21596;-81
2021/12/02 01:03:43;;;;;;;6.73;5.33;;;;;;;-1.00;68.86;98595.45;1736071;82;21149;-84
2021/12/02 01:06:10;;;;;;;8.80;5.63;;;;;;;-0.98;68.48;98584.20;1721405;82;20994;-73
2021/12/02 01:08:40;;;;;;;7.63;5.43;;;;;;;-0.96;68.65;98590.59;1689245;82;21532;-76
2021/12/02 01:11:08;;;;;;;6.00;4.67;;;;;;;-0.90;68.78;98589.26;1732161;82;21535;-77
2021/12/02 01:13:35;;;;;;;7.97;5.43;;;;;;;-0.86;68.61;98579.09;1707207;82;21010;-74
2021/12/02 01:16:02;;;;;;;8.13;5.30;;;;;;;-0.84;68.76;98577.08;1706888;82;21842;-72
2021/12/02 01:18:29;;;;;;;9.80;5.73;;;;;;;-0.84;68.93;98579.72;1685193;84;20999;-73
2021/12/02 01:20:55;;;;;;;7.83;5.13;;;;;;;-0.80;69.06;98575.66;1675926;84;21046;-83
2021/12/02 01:23:22;;;;;;;5.10;3.53;;;;;;;-0.75;69.05;98567.12;1711060;82;21531;-74
2021/12/02 01:25:56;;;;;;;7.43;4.50;;;;;;;-0.79;69.29;98556.17;1726853;82;21035;-73
2021/12/02 01:28:24;;;;;;;12.47;5.83;;;;;;;-0.82;69.56;98556.59;1700059;84;21361;-74
2021/12/02 01:30:52;;;;;;;12.83;6.03;;;;;;;-0.87;70.00;98547.16;1675575;84;21114;-83
2021/12/02 01:33:20;;;;;;;11.47;4.63;;;;;;;-0.87;70.27;98538.42;1710590;82;21029;-76
2021/12/02 01:35:59;;;;;;;6.43;4.90;;;;;;;-0.90;70.55;98535.16;1729191;82;21034;-86
2021/12/02 01:38:27;;;;;;;11.67;3.93;;;;;;;-0.90;70.66;98531.20;1717410;82;21074;-85
2021/12/02 01:40:55;;;;;;;7.60;5.43;;;;;;;-0.88;70.76;98541.56;1705967;82;22078;-86
2021/12/02 01:43:25;;;;;;;6.17;4.17;;;;;;;-0.81;70.75;98534.94;1717997;82;21061;-83
2021/12/02 01:45:52;;;;;;;7.40;4.73;;;;;;;-0.80;70.70;98531.29;1704160;82;21665;-85
2021/12/02 01:48:24;;;;;;;8.30;4.90;;;;;;;-0.83;70.78;98535.67;1743033;81;21065;-90
2021/12/02 01:51:05;;;;;;;4.78;4.25;;;;;;;-0.83;70.79;98524.61;1730152;82;21050;-86
2021/12/02 01:53:36;;;;;;;7.23;4.77;;;;;;;-0.80;70.99;98525.50;1746261;81;21044;-87
2021/12/02 01:56:15;;;;;;;9.40;5.03;;;;;;;-0.76;71.06;98526.71;1742727;81;21060;-86
2021/12/02 01:58:50;;;;;;;7.47;4.37;;;;;;;-0.74;71.16;98519.92;1768841;81;21082;-84
2021/12/02 02:01:25;;;;;;;5.83;3.97;;;;;;;-0.72;71.17;98516.58;1769066;81;21006;-83
2021/12/02 02:03:54;;;;;;;8.63;4.40;;;;;;;-0.74;71.34;98512.00;1710643;82;20951;-83
2021/12/02 02:06:39;;;;;;;3.13;2.83;;;;;;;-0.72;71.44;98520.53;1730305;82;21834;-82
2021/12/02 02:09:08;;;;;;;5.43;4.73;;;;;;;-0.74;71.57;98515.45;1704998;84;20978;-81
2021/12/02 02:11:34;;;;;;;5.87;4.30;;;;;;;-0.74;71.60;98518.09;1724648;82;21476;-84
2021/12/02 02:14:01;;;;;;;7.87;4.73;;;;;;;-0.74;71.72;98512.81;1734897;82;21042;-82
2021/12/02 02:16:28;;;;;;;9.30;4.90;;;;;;;-0.67;71.73;98523.37;1734670;82;21063;-82
2021/12/02 02:18:55;;;;;;;7.73;5.83;;;;;;;-0.67;71.72;98520.73;1769211;81;21475;-82
2021/12/02 02:21:23;;;;;;;9.97;5.67;;;;;;;-0.67;71.86;98516.23;1769001;81;21001;-80
2021/12/02 02:23:57;;;;;;;8.63;5.90;;;;;;;-0.62;71.89;98515.61;1768579;81;21023;-81
2021/12/02 02:26:28;;;;;;;8.93;4.77;;;;;;;-0.63;71.97;98505.59;1705533;84;20971;-82
2021/12/02 02:28:56;;;;;;;8.30;6.47;;;;;;;-0.65;72.15;98509.44;1735252;82;21011;-86
2021/12/02 02:31:23;;;;;;;6.87;4.93;;;;;;;-0.63;72.24;98509.55;1724612;81;21724;-81
2021/12/02 02:33:52;;;;;;;6.97;3.87;;;;;;;-0.59;72.29;98514.71;1741405;81;21567;-78
2021/12/02 02:36:22;;;;;;;4.23;3.40;;;;;;;-0.58;72.36;98504.46;1682041;83;20991;-79
2021/12/02 02:38:55;;;;;;;5.20;3.97;;;;;;;-0.59;72.65;98515.22;1705135;83;21608;-80
2021/12/02 02:41:26;;;;;;;9.83;4.60;;;;;;;-0.60;72.92;98500.39;1744502;81;20951;-78
2021/12/02 02:43:56;;;;;;;4.23;3.20;;;;;;;-0.64;73.22;98499.19;1758096;81;21078;-77
2021/12/02 02:46:30;;;;;;;5.87;4.03;;;;;;;-0.61;73.56;98497.44;1736771;81;20980;-78
2021/12/02 02:48:57;;;;;;;7.87;4.87;;;;;;;-0.58;73.64;98495.72;1733699;81;21066;-79
2021/12/02 02:51:25;;;;;;;6.20;4.20;;;;;;;-0.57;73.79;98496.81;1759072;81;21021;-77
2021/12/02 02:53:55;;;;;;;4.87;3.93;;;;;;;-0.58;73.97;98489.94;1712474;82;21513;-78
2021/12/02 02:56:23;;;;;;;6.77;4.70;;;;;;;-0.55;74.15;98484.73;1705141;83;21082;-79
2021/12/02 03:01:33;;;;;;;8.57;3.70;;;;;;;-0.57;74.52;98473.56;1758924;81;21033;-80
2021/12/02 03:06:55;;;;;;;7.97;5.27;;;;;;;-0.57;74.95;98474.88;1759299;81;20982;-85
2021/12/02 03:14:37;;;;;;;6.83;5.43;;;;;;;-0.47;75.17;98473.94;1737517;81;21582;-80
2021/12/02 03:16:59;;;;;;;5.57;4.60;;;;;;;-0.46;75.28;98471.09;1740434;78;21079;-84
2021/12/02 03:19:28;;;;;;;7.53;5.33;;;;;;;-0.46;75.45;98471.59;1760857;80;20995;-88
2021/12/02 03:21:56;;;;;;;8.00;6.37;;;;;;;-0.48;75.61;98460.45;1758629;81;21039;-82
2021/12/02 03:24:22;;;;;;;8.23;4.87;;;;;;;-0.49;75.92;98458.83;1732828;81;20900;-82
2021/12/02 03:26:48;;;;;;;7.43;5.10;;;;;;;-0.47;75.93;98449.66;1758597;81;21065;-77
2021/12/02 03:29:16;;;;;;;10.77;5.00;;;;;;;-0.43;76.00;98459.28;1759463;81;21070;-80
2021/12/02 03:31:42;;;;;;;10.77;7.10;;;;;;;-0.40;76.16;98459.39;1772670;80;21040;-80
2021/12/02 03:34:09;;;;;;;14.50;9.07;;;;;;;-0.38;76.30;98460.01;1777047;80;21475;-78
2021/12/02 03:36:37;;;;;;;19.53;10.80;;;;;;;-0.36;76.38;98450.03;1777055;80;21006;-78
2021/12/02 03:39:05;;;;;;;27.73;11.60;;;;;;;-0.34;76.49;98446.67;1755664;80;21120;-81
2021/12/02 03:41:33;;;;;;;26.77;15.47;;;;;;;-0.34;76.84;98451.45;1751450;80;20965;-81
2021/12/02 03:44:00;;;;;;;25.13;14.80;;;;;;;-0.31;76.91;98440.97;1775625;80;21093;-81
2021/12/02 03:46:27;;;;;;;24.73;15.00;;;;;;;-0.30;77.10;98438.63;1775553;80;21284;-80
2021/12/02 03:48:54;;;;;;;27.07;16.63;;;;;;;-0.29;77.33;98438.94;1753953;80;21094;-80
2021/12/02 03:51:21;;;;;;;13.07;9.73;;;;;;;-0.23;77.22;98437.56;1736452;81;21089;-78
2021/12/02 03:53:49;;;;;;;15.37;10.53;;;;;;;-0.22;77.27;98425.16;1775230;80;21078;-79
2021/12/02 03:56:16;;;;;;;15.50;10.63;;;;;;;-0.21;77.38;98417.55;1755593;80;21038;-80
2021/12/02 03:58:44;;;;;;;9.80;7.93;;;;;;;-0.21;77.53;98405.66;1724037;81;21108;-79
2021/12/02 04:01:11;;;;;;;14.80;11.53;;;;;;;-0.22;77.70;98408.81;1718614;81;20952;-80
2021/12/02 04:03:38;;;;;;;17.50;11.97;;;;;;;-0.18;77.69;98407.36;1729290;83;21055;-78
2021/12/02 04:06:05;;;;;;;14.57;10.77;;;;;;;-0.11;77.65;98414.75;1702937;83;21497;-78
2021/12/02 04:08:44;;;;;;;12.93;8.90;;;;;;;-0.08;77.54;98406.89;1727180;83;21033;-79
2021/12/02 04:11:15;;;;;;;13.80;7.83;;;;;;;-0.07;77.56;98405.88;1731830;82;21099;-79
2021/12/02 04:13:33;;;;;;;18.73;10.50;;;;;;;-0.05;77.55;98401.20;1675682;84;20922;-78
2021/12/02 04:16:02;;;;;;;15.10;10.30;;;;;;;-0.05;77.58;98400.66;1703014;83;20993;-80
2021/12/02 04:18:25;;;;;;;16.17;10.53;;;;;;;-0.02;77.63;98388.87;1707977;83;21559;-79
2021/12/02 04:20:52;;;;;;;15.40;10.07;;;;;;;0.04;77.58;98389.34;1730554;83;21019;-80
2021/12/02 04:23:18;;;;;;;22.47;12.63;;;;;;;0.06;77.58;98381.98;1728021;83;21569;-79
2021/12/02 04:25:44;;;;;;;19.87;13.13;;;;;;;0.08;77.60;98387.08;1729986;82;20999;-82
2021/12/02 04:28:11;;;;;;;22.70;14.67;;;;;;;0.09;77.71;98387.38;1730455;82;21036;-81
2021/12/02 04:30:37;;;;;;;20.07;12.27;;;;;;;0.12;77.66;98385.11;1729988;82;21019;-80
2021/12/02 04:33:04;;;;;;;21.70;13.30;;;;;;;0.18;77.62;98399.30;1711857;83;21045;-80
2021/12/02 04:35:31;;;;;;;11.17;7.57;;;;;;;0.20;77.57;98375.58;1684981;85;21139;-84
2021/12/02 04:37:58;;;;;;;16.63;9.57;;;;;;;0.20;77.55;98365.52;1698719;84;20968;-79
2021/12/02 04:40:25;;;;;;;18.50;12.30;;;;;;;0.20;77.66;98371.61;1702761;84;21010;-79
2021/12/02 04:42:51;;;;;;;22.40;12.80;;;;;;;0.26;77.69;98377.37;1710390;82;21203;-80
2021/12/02 04:45:18;;;;;;;14.13;9.10;;;;;;;0.30;77.64;98369.30;1709002;82;21086;-78
2021/12/02 04:47:45;;;;;;;19.20;12.03;;;;;;;0.34;77.55;98361.73;1708773;82;21058;-81
2021/12/02 04:50:12;;;;;;;17.00;11.13;;;;;;;0.33;77.56;98364.11;1731780;82;21038;-84
2021/12/02 04:52:39;;;;;;;16.60;12.37;;;;;;;0.37;77.50;98362.13;1731906;82;21018;-79
2021/12/02 04:55:07;;;;;;;17.67;12.67;;;;;;;0.42;77.41;98362.30;1732067;82;21031;-80
2021/12/02 04:57:35;;;;;;;21.63;13.07;;;;;;;0.48;77.26;98355.30;1707344;82;20955;-81
2021/12/02 05:00:07;;;;;;;17.53;11.40;;;;;;;0.52;77.19;98347.76;1732756;82;21131;-84
2021/12/02 05:02:35;;;;;;;17.73;10.27;;;;;;;0.55;77.02;98341.51;1724271;82;20980;-81
2021/12/02 05:05:02;;;;;;;14.80;8.83;;;;;;;0.57;77.08;98342.11;1700303;84;20971;-83
2021/12/02 05:07:28;;;;;;;17.63;12.43;;;;;;;0.60;76.98;98344.31;1720610;82;21054;-81
2021/12/02 05:09:56;;;;;;;21.63;14.47;;;;;;;0.64;76.96;98347.32;1732141;82;21063;-81
2021/12/02 05:12:22;;;;;;;23.87;12.63;;;;;;;0.69;76.87;98335.05;1726587;82;21105;-81
2021/12/02 05:14:48;;;;;;;19.63;13.80;;;;;;;0.72;76.81;98347.05;1677372;84;21078;-80
2021/12/02 05:17:15;;;;;;;22.93;14.40;;;;;;;0.76;76.79;98356.16;1702570;82;21111;-80
2021/12/02 05:19:42;;;;;;;15.40;10.67;;;;;;;0.80;76.76;98355.50;1687357;82;21085;-81
2021/12/02 05:22:08;;;;;;;20.37;12.97;;;;;;;0.81;76.69;98342.58;1709169;82;21016;-85
2021/12/02 05:24:35;;;;;;;15.00;10.73;;;;;;;0.83;76.74;98346.30;1719113;82;21097;-85
2021/12/02 05:27:02;;;;;;;13.33;9.50;;;;;;;0.80;76.82;98336.98;1716298;82;20979;-84
2021/12/02 05:29:28;;;;;;;13.03;10.33;;;;;;;0.82;76.93;98335.42;1731684;82;21519;-81
2021/12/02 05:31:55;;;;;;;15.43;9.67;;;;;;;0.82;77.02;98337.55;1734888;82;21061;-84
2021/12/02 05:34:23;;;;;;;15.73;11.53;;;;;;;0.88;76.96;98331.89;1736061;82;21533;-84
2021/12/02 05:36:49;;;;;;;16.33;9.73;;;;;;;0.92;76.93;98329.09;1735004;82;21952;-83
2021/12/02 05:39:16;;;;;;;17.07;11.40;;;;;;;0.96;76.88;98337.42;1707315;82;21647;-82
2021/12/02 05:41:43;;;;;;;18.67;12.83;;;;;;;0.97;76.88;98325.27;1676803;85;21011;-84
2021/12/02 05:44:09;;;;;;;19.50;13.83;;;;;;;1.02;76.81;98342.62;1689221;84;21017;-83
2021/12/02 05:46:35;;;;;;;19.00;12.30;;;;;;;1.01;76.85;98346.84;1691965;82;21091;-83
2021/12/02 05:49:02;;;;;;;20.17;12.13;;;;;;;1.03;76.99;98358.00;1736102;82;21171;-80
2021/12/02 05:51:28;;;;;;;18.40;12.70;;;;;;;1.05;76.97;98337.42;1736185;82;20999;-81
2021/12/02 05:53:55;;;;;;;20.63;13.33;;;;;;;1.09;76.95;98335.94;1712622;82;21081;-79
2021/12/02 05:56:21;;;;;;;19.60;12.93;;;;;;;1.11;76.90;98336.51;1701377;82;21026;-80
2021/12/02 05:58:48;;;;;;;24.63;14.33;;;;;;;1.16;76.80;98334.00;1721805;82;21123;-81
2021/12/02 06:01:14;;;;;;;16.60;11.83;;;;;;;1.20;76.77;98349.77;1679920;82;21142;-81
2021/12/02 06:03:42;;;;;;;21.27;14.87;;;;;;;1.22;76.62;98347.69;1723472;82;21363;-80
2021/12/02 06:06:08;;;;;;;23.13;12.70;;;;;;;1.26;76.58;98336.94;1737238;82;21017;-82
2021/12/02 06:08:36;;;;;;;16.83;10.87;;;;;;;1.30;76.55;98359.28;1706041;82;21008;-80
2021/12/02 06:11:05;;;;;;;15.27;10.10;;;;;;;1.28;76.58;98352.91;1693789;82;20986;-81
2021/12/02 06:13:31;;;;;;;15.47;12.27;;;;;;;1.33;76.52;98352.23;1697284;82;21028;-79
2021/12/02 06:15:58;;;;;;;13.33;10.43;;;;;;;1.35;76.55;98349.34;1715096;82;21080;-80
2021/12/02 06:18:24;;;;;;;16.43;11.40;;;;;;;1.40;76.40;98339.70;1714718;82;20966;-86
2021/12/02 06:20:53;;;;;;;19.77;13.03;;;;;;;1.42;76.41;98344.78;1688021;82;21112;-83
2021/12/02 06:23:21;;;;;;;15.90;11.40;;;;;;;1.47;76.31;98349.71;1715220;82;20992;-86
2021/12/02 06:25:48;;;;;;;17.93;11.87;;;;;;;1.50;76.14;98343.14;1736015;82;21422;-87
2021/12/02 06:28:18;;;;;;;19.03;13.87;;;;;;;1.48;76.25;98350.01;1729808;82;20880;-84
2021/12/02 06:30:45;;;;;;;21.70;12.30;;;;;;;1.50;76.25;98339.98;1696661;82;21081;-80
2021/12/02 06:33:12;;;;;;;18.52;12.23;;;;;;;1.53;76.27;98328.14;1734194;82;21206;-81
2021/12/02 06:35:40;;;;;;;16.20;12.63;;;;;;;1.56;76.18;98342.25;1707147;82;21615;-82
2021/12/02 06:38:06;;;;;;;18.80;12.20;;;;;;;1.57;76.17;98334.08;1720946;82;21066;-82
2021/12/02 06:40:35;;;;;;;19.70;12.60;;;;;;;1.56;76.26;98340.41;1743085;81;21595;-84
2021/12/02 06:43:02;;;;;;;15.07;10.20;;;;;;;1.56;76.34;98335.62;1768835;81;21058;-84
2021/12/02 06:45:29;;;;;;;14.75;10.85;;;;;;;1.61;76.42;98331.27;1769153;81;21081;-82
2021/12/02 06:48:00;;;;;;;16.37;12.73;;;;;;;1.60;76.47;98332.30;1742829;81;21030;-82
2021/12/02 06:50:24;;;;;;;15.77;11.80;;;;;;;1.65;76.48;98329.78;1744581;81;21133;-86
2021/12/02 06:52:52;;;;;;;12.23;8.30;;;;;;;1.69;76.35;98330.13;1740799;81;21062;-81
2021/12/02 06:55:18;;;;;;;14.17;12.57;;;;;;;1.70;76.46;98327.78;1710994;82;21179;-82
2021/12/02 06:57:45;;;;;;;18.90;13.93;;;;;;;1.69;76.53;98317.69;1701715;84;21234;-82
2021/12/02 07:00:15;;;;;;;14.35;11.68;;;;;;;1.73;76.50;98322.02;1738496;82;21108;-86
2021/12/02 07:02:41;;;;;;;13.83;10.48;;;;;;;1.77;76.44;98323.20;1740587;81;21085;-94
2021/12/02 07:05:11;;;;;;;13.48;10.53;;;;;;;1.83;76.29;98316.16;1737045;82;20959;-88
2021/12/02 07:07:37;;;;;;;12.85;11.30;;;;;;;1.86;76.18;98317.05;1706675;82;21686;-87
2021/12/02 07:10:06;;;;;;;14.50;10.63;;;;;;;1.93;76.14;98324.37;1735082;82;21065;-85
2021/12/02 07:12:33;;;;;;;15.75;12.47;;;;;;;1.98;76.14;98321.84;1734624;82;21034;-89
2021/12/02 07:15:14;;;;;;;12.50;8.98;;;;;;;2.05;75.92;98329.19;1734560;82;21168;-83
2021/12/02 07:17:37;;;;;;;14.30;11.25;;;;;;;2.10;75.46;98334.11;1716901;82;21567;-85
2021/12/02 07:20:05;;;;;;;16.80;12.47;;;;;;;2.12;75.44;98324.06;1675828;84;21122;-83
2021/12/02 07:22:32;;;;;;;18.75;12.63;;;;;;;2.16;75.40;98325.21;1675700;84;21055;-90
2021/12/02 07:25:00;;;;;;;16.23;12.78;;;;;;;2.22;75.28;98317.37;1711228;82;21047;-89
2021/12/02 07:27:26;;;;;;;14.05;11.20;;;;;;;2.28;75.14;98317.27;1768162;81;21232;-85
2021/12/02 07:29:53;;;;;;;20.27;14.53;;;;;;;2.33;75.02;98307.30;1742832;81;21034;-86
2021/12/02 07:32:20;;;;;;;21.20;12.28;;;;;;;2.41;74.82;98314.91;1744689;81;21021;-85
2021/12/02 07:34:46;;;;;;;20.23;13.50;;;;;;;2.42;74.68;98317.33;1767545;81;21096;-82
2021/12/02 07:37:16;;;;;;;15.20;10.63;;;;;;;2.44;74.60;98316.59;1767720;81;21002;-89
2021/12/02 07:39:43;;;;;;;15.03;11.22;;;;;;;2.50;74.59;98317.48;1769611;80;21094;-91
2021/12/02 07:42:10;;;;;;;16.37;12.40;;;;;;;2.53;74.48;98325.82;1749382;81;21661;-91
2021/12/02 07:44:36;;;;;;;17.73;13.03;;;;;;;2.59;74.42;98319.56;1769974;80;21810;-87
2021/12/02 07:47:03;;;;;;;17.35;11.70;;;;;;;2.63;74.39;98319.93;1769747;81;20977;-87
2021/12/02 07:49:31;;;;;;;17.12;11.68;;;;;;;2.66;74.29;98314.14;1769864;81;21003;-87
2021/12/02 07:52:00;;;;;;;19.57;12.75;;;;;;;2.71;74.26;98321.41;1769851;81;21150;-90
2021/12/02 07:54:30;;;;;;;23.62;15.23;;;;;;;2.76;74.15;98318.34;1769492;81;20961;-91
2021/12/02 07:56:56;;;;;;;19.80;13.30;;;;;;;2.79;74.07;98327.16;1766467;80;21051;-89
2021/12/02 07:59:22;;;;;;;16.40;12.33;;;;;;;2.83;74.06;98328.30;1767605;80;21116;-87
2021/12/02 08:01:49;;;;;;;16.25;10.72;;;;;;;2.85;73.99;98324.09;1748486;81;21111;-85
2021/12/02 08:04:15;;;;;;;18.77;13.58;;;;;;;2.91;73.88;98329.30;1767625;81;21353;-83
2021/12/02 08:06:42;;;;;;;18.37;12.15;;;;;;;2.93;73.82;98327.71;1741325;81;20998;-85
2021/12/02 08:09:13;;;;;;;14.98;11.43;;;;;;;2.95;73.74;98319.00;1722396;81;21098;-89
2021/12/02 08:11:39;;;;;;;14.20;11.57;;;;;;;2.96;73.68;98329.40;1767868;81;21481;-88
2021/12/02 08:14:12;;;;;;;20.90;13.75;;;;;;;3.02;73.68;98331.09;1748620;81;21033;-84
2021/12/02 08:16:33;;;;;;;19.85;12.37;;;;;;;3.06;73.65;98323.48;1767137;80;21065;-86
2021/12/02 08:19:01;;;;;;;17.90;13.18;;;;;;;3.10;73.53;98327.80;1722238;81;21013;-86
2021/12/02 08:21:28;;;;;;;17.48;12.40;;;;;;;3.10;73.59;98334.44;1749694;81;21028;-90
2021/12/02 08:23:54;;;;;;;16.50;11.35;;;;;;;3.13;73.62;98344.07;1769303;81;21045;-95
2021/12/02 08:26:20;;;;;;;19.65;14.33;;;;;;;3.21;73.57;98341.58;1740086;81;21001;-90
2021/12/02 08:28:48;;;;;;;16.45;10.28;;;;;;;3.27;73.40;98339.29;1768687;81;21157;-95
2021/12/02 08:31:16;;;;;;;14.23;11.10;;;;;;;3.33;73.26;98315.77;1748452;81;21084;-89
2021/12/02 08:33:42;;;;;;;16.67;12.13;;;;;;;3.36;73.16;98332.55;1772050;81;21173;-91
2021/12/02 08:36:09;;;;;;;13.03;10.98;;;;;;;3.41;73.15;98326.02;1745391;81;21592;-88
2021/12/02 08:38:36;;;;;;;14.58;10.98;;;;;;;3.47;73.02;98330.39;1769738;80;21003;-92
2021/12/02 08:41:05;;;;;;;19.40;12.40;;;;;;;3.51;72.94;98328.86;1734109;81;20991;-90
2021/12/02 08:43:31;;;;;;;12.65;10.50;;;;;;;3.56;72.87;98326.82;1734896;81;21069;-86
2021/12/02 08:45:58;;;;;;;11.95;10.43;;;;;;;3.60;72.68;98320.01;1717581;82;20978;-85
2021/12/02 08:48:25;;;;;;;12.73;10.58;;;;;;;3.61;72.73;98314.95;1736390;81;21039;-82
2021/12/02 08:50:51;;;;;;;14.30;9.95;;;;;;;3.64;72.80;98306.52;1738439;81;20975;-84
2021/12/02 08:53:19;;;;;;;13.03;9.68;;;;;;;3.68;72.75;98299.67;1705059;84;21028;-80
2021/12/02 08:55:46;;;;;;;17.25;12.37;;;;;;;3.73;72.58;98302.42;1735297;82;21492;-82
2021/12/02 08:58:12;;;;;;;16.65;11.43;;;;;;;3.74;72.57;98296.06;1748203;81;21570;-87
2021/12/02 09:00:40;;;;;;;16.27;11.95;;;;;;;3.76;72.70;98292.63;1768959;80;21030;-83
2021/12/02 09:03:09;;;;;;;15.78;10.78;;;;;;;3.79;72.74;98288.95;1717263;81;21643;-84
2021/12/02 09:05:36;;;;;;;19.17;11.97;;;;;;;3.83;72.71;98298.61;1745821;80;21116;-81
2021/12/02 09:08:03;;;;;;;13.65;10.78;;;;;;;3.86;72.74;98301.59;1756316;81;20969;-78
2021/12/02 09:10:30;;;;;;;10.93;9.20;;;;;;;3.93;72.72;98312.08;1768747;81;20946;-79
2021/12/02 09:12:57;;;;;;;13.93;9.90;;;;;;;3.98;72.61;98300.72;1766499;81;21503;-81
2021/12/02 09:15:24;;;;;;;12.93;9.90;;;;;;;4.02;72.56;98301.33;1742775;81;21551;-83
2021/12/02 09:17:51;;;;;;;14.15;11.75;;;;;;;4.06;72.50;98286.48;1743099;81;22256;-81
2021/12/02 09:20:18;;;;;;;15.48;10.63;;;;;;;4.11;72.56;98291.08;1768622;80;20981;-87
2021/12/02 09:22:45;;;;;;;18.40;12.68;;;;;;;4.17;72.43;98285.58;1753899;81;22244;-85
2021/12/02 09:25:12;;;;;;;14.78;11.10;;;;;;;4.16;72.47;98293.83;1735394;82;21568;-89
2021/12/02 09:27:39;;;;;;;15.23;10.65;;;;;;;4.17;72.71;98282.91;1729171;81;21294;-84
2021/12/02 09:30:06;;;;;;;12.50;9.65;;;;;;;4.17;72.71;98282.91;1741837;81;21028;-83
2021/12/02 09:32:33;;;;;;;20.37;13.70;;;;;;;4.20;72.89;98278.46;1770964;80;21024;-86
2021/12/02 09:35:00;;;;;;;11.88;9.18;;;;;;;4.22;72.98;98272.91;1755481;80;20941;-86
2021/12/02 09:37:27;;;;;;;10.88;9.05;;;;;;;4.22;72.98;98272.91;1773452;80;21550;-86
2021/12/02 09:39:57;;;;;;;14.93;9.23;;;;;;;4.25;72.97;98283.05;1759464;80;20905;-88
2021/12/02 09:42:23;;;;;;;13.32;9.30;;;;;;;4.25;73.02;98286.52;1703136;83;21130;-86
2021/12/02 09:44:54;;;;;;;12.18;9.53;;;;;;;4.25;73.09;98278.54;1691695;84;21089;-86
2021/12/02 09:47:18;;;;;;;10.93;9.13;;;;;;;4.24;73.39;98276.92;1723701;82;21579;-82
2021/12/02 09:49:45;;;;;;;10.08;8.50;;;;;;;4.24;73.39;98276.92;1702410;84;21061;-85
2021/12/02 09:52:14;;;;;;;9.78;8.75;;;;;;;4.26;73.45;98268.70;1701202;84;21102;-83
2021/12/02 09:54:44;;;;;;;11.22;8.40;;;;;;;4.27;73.56;98272.43;1708895;82;21144;-82
2021/12/02 09:57:13;;;;;;;15.65;9.58;;;;;;;4.32;73.60;98265.86;1732890;82;21027;-76
2021/12/02 10:02:12;;;;;;;14.60;9.80;;;;;;;4.41;73.58;98283.56;1726854;82;20986;-85
2021/12/02 10:05:01;;;;;;;12.03;9.83;;;;;;;4.47;73.65;98281.75;1711089;82;21595;-84
2021/12/02 10:07:22;;;;;;;14.13;8.90;;;;;;;4.49;73.64;98270.35;1724744;82;22167;-84
2021/12/02 10:10:05;;;;;;;16.55;10.72;;;;;;;4.53;73.69;98263.48;1730038;82;20995;-80
2021/12/02 10:12:26;;;;;;;11.70;9.23;;;;;;;4.52;73.70;98260.53;1721583;81;21605;-86
2021/12/02 10:14:56;;;;;;;15.50;11.15;;;;;;;4.56;73.83;98268.30;1726827;81;21004;-90
2021/12/02 10:17:34;;;;;;;15.43;11.28;;;;;;;4.58;73.88;98266.22;1730911;81;21151;-91
2021/12/02 10:20:20;;;;;;;14.30;11.60;;;;;;;4.63;73.97;98260.96;1731485;81;20955;-86
2021/12/02 10:22:46;;;;;;;14.58;12.78;;;;;;;4.67;73.93;98259.41;1704447;82;21144;-85
2021/12/02 10:25:29;;;;;;;18.15;10.65;;;;;;;4.72;73.93;98263.47;1725568;81;21112;-87
2021/12/02 10:28:11;;;;;;;14.87;10.75;;;;;;;4.75;74.02;98253.64;1725052;81;20999;-78
2021/12/02 10:30:48;;;;;;;11.73;9.78;;;;;;;4.82;73.91;98251.09;1727818;81;21050;-80
2021/12/02 10:33:15;;;;;;;17.05;11.57;;;;;;;4.86;73.85;98250.06;1728910;81;21580;-82
2021/12/02 10:35:50;;;;;;;19.80;12.18;;;;;;;4.91;73.82;98243.47;1680746;81;21015;-77
2021/12/02 10:38:38;;;;;;;25.02;16.20;;;;;;;4.91;73.87;98240.80;1723154;81;20965;-79
2021/12/02 10:41:10;;;;;;;15.25;11.48;;;;;;;4.95;73.86;98243.77;1719882;81;21576;-86
2021/12/02 10:43:40;;;;;;;13.03;10.80;;;;;;;4.93;73.95;98236.05;1722304;81;21046;-88
2021/12/02 10:46:18;;;;;;;14.38;10.65;;;;;;;4.95;74.10;98245.10;1698251;81;21055;-84
2021/12/02 10:48:50;;;;;;;15.88;11.50;;;;;;;4.94;74.12;98263.49;1699966;83;21590;-84
2021/12/02 10:51:46;;;;;;;17.50;11.83;;;;;;;4.90;74.22;98239.19;1722566;81;21069;-83
2021/12/02 10:54:21;;;;;;;15.53;10.50;;;;;;;4.91;74.31;98242.66;1721764;81;21148;-85
2021/12/02 10:56:51;;;;;;;13.13;9.40;;;;;;;4.97;74.39;98253.14;1718842;83;21160;-87
2021/12/02 10:59:33;;;;;;;15.38;12.28;;;;;;;5.07;74.32;98253.25;1676306;84;21158;-78
2021/12/02 11:02:07;;;;;;;13.38;10.58;;;;;;;5.10;74.06;98243.42;1700465;84;21015;-80
2021/12/02 11:04:40;;;;;;;14.53;11.00;;;;;;;5.14;73.94;98234.39;1700522;82;20948;-85
2021/12/02 11:07:11;;;;;;;15.63;11.80;;;;;;;5.17;73.80;98236.05;1710742;81;21020;-83
2021/12/02 11:09:39;;;;;;;17.95;13.98;;;;;;;5.19;73.74;98220.59;1707112;82;21015;-84
2021/12/02 11:12:19;;;;;;;13.38;11.97;;;;;;;5.23;73.59;98243.02;1697041;84;21048;-84
2021/12/02 11:15:07;;;;;;;13.95;11.83;;;;;;;5.22;73.53;98228.11;1712426;82;21030;-86
2021/12/02 11:17:42;;;;;;;14.78;11.70;;;;;;;5.19;73.46;98220.59;1729573;82;21007;-74
2021/12/02 11:20:24;;;;;;;15.08;11.43;;;;;;;5.20;73.51;98212.08;1734398;82;20955;-77
2021/12/02 11:23:02;;;;;;;15.05;11.65;;;;;;;5.21;73.52;98212.36;1714156;82;21102;-76
2021/12/02 11:25:31;;;;;;;15.68;11.60;;;;;;;5.16;73.63;98226.44;1731814;82;21866;-74
2021/12/02 11:28:04;;;;;;;13.68;10.55;;;;;;;5.14;73.77;98215.73;1706088;82;21587;-73
2021/12/02 11:30:32;;;;;;;13.72;10.45;;;;;;;5.17;73.87;98224.06;1700892;84;20983;-74
2021/12/02 11:33:02;;;;;;;15.18;11.95;;;;;;;5.19;73.80;98203.80;1716474;81;21547;-73
2021/12/02 11:35:44;;;;;;;16.65;10.55;;;;;;;5.21;73.74;98207.03;1735971;81;21016;-85
2021/12/02 11:38:16;;;;;;;16.82;11.35;;;;;;;5.22;73.62;98210.79;1712612;82;21086;-79
2021/12/02 11:40:45;;;;;;;14.78;12.60;;;;;;;5.20;73.74;98205.42;1735363;81;20971;-81
2021/12/02 11:43:13;;;;;;;13.88;10.78;;;;;;;5.20;73.79;98210.22;1741808;81;21070;-76
2021/12/02 11:45:49;;;;;;;16.93;12.33;;;;;;;5.22;73.84;98215.31;1768629;81;21029;-79
2021/12/02 11:48:22;;;;;;;16.85;12.13;;;;;;;5.19;73.92;98207.27;1758843;81;21066;-78
2021/12/02 11:50:55;;;;;;;15.70;11.85;;;;;;;5.16;73.98;98207.78;1742591;81;21804;-76
2021/12/02 11:53:22;;;;;;;17.82;13.22;;;;;;;5.14;74.15;98205.89;1735916;81;28619;-76
2021/12/02 11:55:57;;;;;;;16.85;12.20;;;;;;;5.13;74.20;98207.48;1768007;80;21046;-82